Time;durP1;ratioP1;P1;durP2;ratioP2;P2;SDS_P1;SDS_P2;PMS_P1;PMS_P2;Temp;Humidity;BMP_temperature;BMP_pressure;BME280_temperature;BME280_humidity;BME280_pressure;Samples;Min_cycle;Max_cycle;Signal;HPM_P1;HPM_P2
2022/11/29 00:00:34;;;;;;;25.55;17.20;;;;;;;;;;6222723;28;20104;-72
2022/11/29 00:03:37;;;;;;;26.45;17.33;;;;;;;;;;6222935;28;20053;-72
2022/11/29 00:06:39;;;;;;;28.67;16.98;;;;;;;;;;6223880;28;20073;-73
2022/11/29 00:09:40;;;;;;;24.58;17.45;;;;;;;;;;6225922;28;20127;-73
2022/11/29 00:12:42;;;;;;;24.95;16.48;;;;;;;;;;6225723;28;20265;-72
2022/11/29 00:15:44;;;;;;;29.38;17.52;;;;;;;;;;6221192;28;20054;-72
2022/11/29 00:18:49;;;;;;;28.25;17.45;;;;;;;;;;6223379;28;20058;-72
2022/11/29 00:21:50;;;;;;;27.73;17.08;;;;;;;;;;6224525;28;20061;-72
2022/11/29 00:24:52;;;;;;;24.90;17.50;;;;;;;;;;6223177;28;20282;-72
2022/11/29 00:27:54;;;;;;;28.17;16.08;;;;;;;;;;6224881;28;20250;-73
2022/11/29 00:30:55;;;;;;;28.67;17.27;;;;;;;;;;6225935;28;20046;-72
2022/11/29 00:34:00;;;;;;;26.70;17.45;;;;;;;;;;6225642;28;20057;-73
2022/11/29 00:37:02;;;;;;;23.92;17.10;;;;;;;;;;6225528;28;20058;-74
2022/11/29 00:40:05;;;;;;;29.90;17.80;;;;;;;;;;6223000;28;20045;-73
2022/11/29 00:43:06;;;;;;;27.73;16.88;;;;;;;;;;6224405;28;20261;-72
2022/11/29 00:46:08;;;;;;;26.23;16.75;;;;;;;;;;6220970;28;20054;-72
2022/11/29 00:49:11;;;;;;;26.17;17.42;;;;;;;;;;6224644;28;20054;-71
2022/11/29 00:52:13;;;;;;;26.00;16.52;;;;;;;;;;6219548;28;20277;-72
2022/11/29 00:55:15;;;;;;;26.15;16.98;;;;;;;;;;6225189;28;20108;-72
2022/11/29 00:58:16;;;;;;;27.15;17.20;;;;;;;;;;6223436;28;20046;-72
2022/11/29 01:01:18;;;;;;;23.38;16.27;;;;;;;;;;6223843;28;20309;-71
2022/11/29 01:04:22;;;;;;;26.77;16.70;;;;;;;;;;6220129;28;20384;-72
2022/11/29 01:07:23;;;;;;;25.25;15.98;;;;;;;;;;6220764;28;20046;-72
2022/11/29 01:10:25;;;;;;;27.42;17.40;;;;;;;;;;6219733;28;20058;-71
2022/11/29 01:13:27;;;;;;;23.00;16.55;;;;;;;;;;6222435;28;20096;-70
2022/11/29 01:16:30;;;;;;;28.15;17.23;;;;;;;;;;6218193;28;20058;-70
2022/11/29 01:19:33;;;;;;;26.67;17.47;;;;;;;;;;6221092;28;20054;-72
2022/11/29 01:22:35;;;;;;;27.90;17.92;;;;;;;;;;6221567;28;20113;-70
2022/11/29 01:25:37;;;;;;;30.30;17.40;;;;;;;;;;6221549;28;20100;-70
2022/11/29 01:28:39;;;;;;;27.63;17.25;;;;;;;;;;6223643;28;20062;-70
2022/11/29 01:31:41;;;;;;;26.67;17.77;;;;;;;;;;6219983;28;20407;-70
2022/11/29 01:34:44;;;;;;;31.65;18.35;;;;;;;;;;6220615;28;20245;-71
2022/11/29 01:37:46;;;;;;;26.63;17.63;;;;;;;;;;6220867;28;20049;-71
2022/11/29 01:40:57;;;;;;;25.10;16.60;;;;;;;;;;6219227;28;21116;-70
2022/11/29 01:44:02;;;;;;;26.38;16.60;;;;;;;;;;6223084;28;20054;-69
2022/11/29 01:47:04;;;;;;;28.15;17.05;;;;;;;;;;6222854;28;20368;-71
2022/11/29 01:50:08;;;;;;;28.30;17.20;;;;;;;;;;6219991;28;20046;-71
2022/11/29 01:53:11;;;;;;;27.48;16.33;;;;;;;;;;6220416;28;20054;-71
2022/11/29 01:56:14;;;;;;;25.02;16.75;;;;;;;;;;6220809;28;20057;-70
2022/11/29 01:59:18;;;;;;;25.85;16.35;;;;;;;;;;6220435;28;20073;-70
2022/11/29 02:02:23;;;;;;;26.52;16.42;;;;;;;;;;6223198;28;20124;-71
2022/11/29 02:05:26;;;;;;;30.45;17.15;;;;;;;;;;6222840;28;20096;-71
2022/11/29 02:08:33;;;;;;;25.30;16.83;;;;;;;;;;6221445;28;20057;-71
2022/11/29 02:12:08;;;;;;;30.13;16.88;;;;;;;;;;6222818;28;20049;-70
2022/11/29 02:15:23;;;;;;;;;;;;;;;;;;6222614;28;20053;-71
2022/11/29 02:18:32;;;;;;;26.98;17.80;;;;;;;;;;6221212;28;19928;-70
2022/11/29 02:21:39;;;;;;;28.25;17.02;;;;;;;;;;6223707;28;20065;-70
2022/11/29 02:25:12;;;;;;;25.15;16.77;;;;;;;;;;6223029;28;20347;-70
2022/11/29 02:28:58;;;;;;;29.25;17.40;;;;;;;;;;6221814;28;20116;-70
2022/11/29 02:32:37;;;;;;;28.98;17.30;;;;;;;;;;6121663;29;20110;-71
2022/11/29 02:35:48;;;;;;;24.85;16.70;;;;;;;;;;6101129;29;20371;-70
2022/11/29 02:39:03;;;;;;;29.60;17.90;;;;;;;;;;6121868;29;20083;-70
2022/11/29 02:42:28;;;;;;;28.73;18.33;;;;;;;;;;6123249;29;20048;-71
2022/11/29 02:45:41;;;;;;;30.38;18.75;;;;;;;;;;6124051;29;20051;-70
2022/11/29 02:49:00;;;;;;;32.63;20.08;;;;;;;;;;6123239;29;20047;-71
2022/11/29 02:52:05;;;;;;;33.90;20.77;;;;;;;;;;6122284;29;20102;-70
2022/11/29 02:55:09;;;;;;;31.83;19.02;;;;;;;;;;6122255;29;20063;-71
2022/11/29 02:58:17;;;;;;;29.95;19.85;;;;;;;;;;6122077;29;20233;-70
2022/11/29 03:01:23;;;;;;;30.27;19.63;;;;;;;;;;6119252;29;20047;-70
2022/11/29 03:04:32;;;;;;;30.13;19.98;;;;;;;;;;6116887;29;20343;-70
2022/11/29 03:07:40;;;;;;;31.20;19.25;;;;;;;;;;6180445;28;20104;-70
2022/11/29 03:10:52;;;;;;;30.50;21.17;;;;;;;;;;6226471;28;20065;-71
2022/11/29 03:14:07;;;;;;;33.20;20.48;;;;;;;;;;6225801;28;20061;-71
2022/11/29 03:17:16;;;;;;;31.73;21.33;;;;;;;;;;6224886;28;20246;-71
2022/11/29 03:20:27;;;;;;;30.45;19.83;;;;;;;;;;6225035;28;20108;-70
2022/11/29 03:23:34;;;;;;;30.85;19.65;;;;;;;;;;6224445;28;20104;-70
2022/11/29 03:26:41;;;;;;;31.85;19.67;;;;;;;;;;6224013;28;20152;-70
2022/11/29 03:29:48;;;;;;;31.65;19.55;;;;;;;;;;6225449;28;20061;-70
2022/11/29 03:32:56;;;;;;;30.17;20.42;;;;;;;;;;6223116;28;20057;-71
2022/11/29 03:36:04;;;;;;;32.90;19.83;;;;;;;;;;6223917;28;21157;-71
2022/11/29 03:39:11;;;;;;;36.05;20.80;;;;;;;;;;6225212;28;20095;-71
2022/11/29 03:42:16;;;;;;;31.05;19.45;;;;;;;;;;6223376;28;20265;-70
2022/11/29 03:45:23;;;;;;;30.88;20.40;;;;;;;;;;6221870;28;20060;-70
2022/11/29 03:48:30;;;;;;;30.83;20.60;;;;;;;;;;6225713;28;20065;-70
2022/11/29 03:51:43;;;;;;;35.25;20.25;;;;;;;;;;6226038;28;20452;-70
2022/11/29 03:54:50;;;;;;;32.17;20.10;;;;;;;;;;6225289;28;20117;-70
2022/11/29 03:58:02;;;;;;;33.67;20.45;;;;;;;;;;6219474;28;20057;-70
2022/11/29 04:01:37;;;;;;;30.98;20.60;;;;;;;;;;6223305;28;20069;-71
2022/11/29 04:05:03;;;;;;;34.17;20.42;;;;;;;;;;6223156;28;20050;-70
2022/11/29 04:08:19;;;;;;;32.00;20.10;;;;;;;;;;6222680;28;20046;-71
2022/11/29 04:11:53;;;;;;;34.17;20.95;;;;;;;;;;6224327;28;20049;-71
2022/11/29 04:15:13;;;;;;;33.97;20.43;;;;;;;;;;6223035;28;20312;-70
2022/11/29 04:18:46;;;;;;;31.85;20.33;;;;;;;;;;6223398;28;20061;-71
2022/11/29 04:22:12;;;;;;;35.58;20.08;;;;;;;;;;6220575;28;20141;-70
2022/11/29 04:25:49;;;;;;;34.22;21.25;;;;;;;;;;6222700;28;20995;-71
2022/11/29 04:29:13;;;;;;;30.23;19.85;;;;;;;;;;6180754;28;20148;-70
2022/11/29 04:32:34;;;;;;;33.65;20.90;;;;;;;;;;6218549;28;20207;-70
2022/11/29 04:35:47;;;;;;;31.13;19.67;;;;;;;;;;6222437;28;20037;-70
2022/11/29 04:39:15;;;;;;;32.67;21.13;;;;;;;;;;6222350;28;20046;-71
2022/11/29 04:42:52;;;;;;;32.55;20.27;;;;;;;;;;6221675;28;20325;-71
2022/11/29 04:46:32;;;;;;;35.28;21.10;;;;;;;;;;6220922;28;20344;-70
2022/11/29 04:49:57;;;;;;;32.75;20.40;;;;;;;;;;6124486;29;20047;-70
2022/11/29 04:53:23;;;;;;;34.83;20.40;;;;;;;;;;6124036;29;20052;-70
2022/11/29 04:56:31;;;;;;;34.67;19.65;;;;;;;;;;6125563;29;20047;-71
2022/11/29 04:59:39;;;;;;;33.90;20.98;;;;;;;;;;6121872;29;20103;-71
2022/11/29 05:02:48;;;;;;;30.13;20.00;;;;;;;;;;6121713;29;20873;-71
2022/11/29 05:05:55;;;;;;;32.60;21.08;;;;;;;;;;6122736;29;20083;-70
2022/11/29 05:09:02;;;;;;;31.27;19.33;;;;;;;;;;6123014;29;20094;-70
2022/11/29 05:12:10;;;;;;;32.97;19.98;;;;;;;;;;6125664;29;20063;-71
2022/11/29 05:15:31;;;;;;;32.15;20.08;;;;;;;;;;6123077;29;20081;-70
2022/11/29 05:18:58;;;;;;;31.05;19.83;;;;;;;;;;6125227;29;20059;-71
2022/11/29 05:22:05;;;;;;;31.17;19.33;;;;;;;;;;6218630;28;20042;-70
2022/11/29 05:25:25;;;;;;;31.15;19.05;;;;;;;;;;6220288;28;20261;-70
2022/11/29 05:28:33;;;;;;;35.25;20.38;;;;;;;;;;6220482;28;20054;-71
2022/11/29 05:31:51;;;;;;;34.50;19.83;;;;;;;;;;6222070;28;20057;-70
2022/11/29 05:35:24;;;;;;;29.88;18.48;;;;;;;;;;6222222;28;20104;-70
2022/11/29 05:38:39;;;;;;;33.70;20.17;;;;;;;;;;6222293;28;20099;-71
2022/11/29 05:41:57;;;;;;;32.38;20.70;;;;;;;;;;6221130;28;20208;-70
2022/11/29 05:45:04;;;;;;;31.75;19.67;;;;;;;;;;6221912;28;20050;-70
2022/11/29 05:48:10;;;;;;;31.50;19.25;;;;;;;;;;6221270;28;20117;-71
2022/11/29 05:51:20;;;;;;;30.80;19.67;;;;;;;;;;6220643;28;20054;-70
2022/11/29 05:54:27;;;;;;;29.95;19.42;;;;;;;;;;6220745;28;20069;-70
2022/11/29 05:57:33;;;;;;;30.98;19.02;;;;;;;;;;6221189;28;20145;-70
2022/11/29 06:00:41;;;;;;;35.60;21.33;;;;;;;;;;6223494;28;20054;-71
2022/11/29 06:03:53;;;;;;;29.05;19.45;;;;;;;;;;6217664;28;20160;-70
2022/11/29 06:07:00;;;;;;;32.08;19.30;;;;;;;;;;6215701;28;20172;-70
2022/11/29 06:10:05;;;;;;;34.15;19.95;;;;;;;;;;6223781;28;20053;-69
2022/11/29 06:13:13;;;;;;;31.05;19.85;;;;;;;;;;6216311;28;20050;-73
2022/11/29 06:16:26;;;;;;;30.48;20.33;;;;;;;;;;6220643;28;20347;-71
2022/11/29 06:19:37;;;;;;;30.08;19.58;;;;;;;;;;6220889;28;20326;-70
2022/11/29 06:22:51;;;;;;;31.90;19.42;;;;;;;;;;6221063;28;20061;-70
2022/11/29 06:26:04;;;;;;;29.13;20.20;;;;;;;;;;6218832;28;20058;-69
2022/11/29 06:29:22;;;;;;;30.50;19.08;;;;;;;;;;6218805;28;20066;-70
2022/11/29 06:32:29;;;;;;;31.77;19.67;;;;;;;;;;6224135;28;20068;-70
2022/11/29 06:35:38;;;;;;;30.55;18.52;;;;;;;;;;6219275;28;20084;-69
2022/11/29 06:38:40;;;;;;;27.83;18.50;;;;;;;;;;6218781;28;20111;-70
2022/11/29 06:41:42;;;;;;;29.35;19.20;;;;;;;;;;6221101;28;20044;-70
2022/11/29 06:44:44;;;;;;;28.50;18.85;;;;;;;;;;6221091;28;20104;-70
2022/11/29 06:47:48;;;;;;;29.88;19.23;;;;;;;;;;6218168;28;20269;-70
2022/11/29 06:50:58;;;;;;;28.20;17.50;;;;;;;;;;6219960;28;20230;-70
2022/11/29 06:54:06;;;;;;;28.77;18.45;;;;;;;;;;6220191;28;20073;-70
2022/11/29 06:57:13;;;;;;;31.17;18.23;;;;;;;;;;6221309;28;20054;-72
2022/11/29 07:00:18;;;;;;;29.63;18.35;;;;;;;;;;6216694;28;20206;-69
2022/11/29 07:03:39;;;;;;;27.73;17.42;;;;;;;;;;6220646;28;20506;-70
2022/11/29 07:06:42;;;;;;;27.50;17.85;;;;;;;;;;6221746;28;20092;-70
2022/11/29 07:09:46;;;;;;;29.90;19.00;;;;;;;;;;6219444;28;20050;-69
2022/11/29 07:12:49;;;;;;;30.40;19.55;;;;;;;;;;6218482;28;20349;-69
2022/11/29 07:15:56;;;;;;;25.23;17.73;;;;;;;;;;6221470;28;20084;-69
2022/11/29 07:19:03;;;;;;;30.05;18.48;;;;;;;;;;6219341;28;20057;-71
2022/11/29 07:22:11;;;;;;;32.58;18.23;;;;;;;;;;6221110;28;20046;-71
2022/11/29 07:25:22;;;;;;;25.75;16.98;;;;;;;;;;6219481;28;20062;-71
2022/11/29 07:28:33;;;;;;;27.27;18.15;;;;;;;;;;6215548;28;20121;-71
2022/11/29 07:31:45;;;;;;;25.85;17.83;;;;;;;;;;6216541;28;20070;-71
2022/11/29 07:34:56;;;;;;;28.95;18.42;;;;;;;;;;6220181;28;20050;-71
2022/11/29 07:38:08;;;;;;;30.30;18.77;;;;;;;;;;6219944;28;20285;-71
2022/11/29 07:41:14;;;;;;;27.13;18.50;;;;;;;;;;6219091;28;20113;-70
2022/11/29 07:44:21;;;;;;;26.60;19.13;;;;;;;;;;6223194;28;20054;-69
2022/11/29 07:47:22;;;;;;;30.02;18.50;;;;;;;;;;6221276;28;21575;-71
2022/11/29 07:50:25;;;;;;;27.85;18.27;;;;;;;;;;6222328;28;20077;-71
2022/11/29 07:53:29;;;;;;;29.50;17.83;;;;;;;;;;6218819;28;20053;-71
2022/11/29 07:56:30;;;;;;;30.27;17.83;;;;;;;;;;6226172;28;20273;-71
2022/11/29 07:59:32;;;;;;;28.88;17.58;;;;;;;;;;6223670;28;20054;-71
2022/11/29 08:02:34;;;;;;;25.80;16.38;;;;;;;;;;6226166;28;20073;-71
2022/11/29 08:05:35;;;;;;;27.27;17.92;;;;;;;;;;6224282;28;20070;-71
2022/11/29 08:08:38;;;;;;;24.70;16.33;;;;;;;;;;6224801;28;20046;-71
2022/11/29 08:11:40;;;;;;;27.58;17.25;;;;;;;;;;6228919;28;20127;-71
2022/11/29 08:14:42;;;;;;;26.10;16.38;;;;;;;;;;6225456;28;20169;-71
2022/11/29 08:17:44;;;;;;;25.85;16.90;;;;;;;;;;6223019;28;20050;-71
2022/11/29 08:20:45;;;;;;;23.90;16.35;;;;;;;;;;6223598;28;21931;-72
2022/11/29 08:23:49;;;;;;;26.48;17.17;;;;;;;;;;6223917;28;20068;-71
2022/11/29 08:26:51;;;;;;;28.90;16.92;;;;;;;;;;6224903;28;20119;-71
2022/11/29 08:29:52;;;;;;;25.02;16.23;;;;;;;;;;6225354;28;20038;-71
2022/11/29 08:32:54;;;;;;;27.58;15.75;;;;;;;;;;6224336;28;20244;-69
2022/11/29 08:35:56;;;;;;;25.98;17.70;;;;;;;;;;6224953;28;20498;-71
2022/11/29 08:39:01;;;;;;;22.35;16.25;;;;;;;;;;6224855;28;20104;-71
2022/11/29 08:42:03;;;;;;;24.92;15.45;;;;;;;;;;6223508;28;20049;-72
2022/11/29 08:45:06;;;;;;;66.78;16.48;;;;;;;;;;6223603;28;20121;-71
2022/11/29 08:48:07;;;;;;;27.08;15.40;;;;;;;;;;6225476;28;20422;-71
2022/11/29 08:51:09;;;;;;;54.50;17.45;;;;;;;;;;6222081;28;20160;-71
2022/11/29 08:54:12;;;;;;;23.33;11.85;;;;;;;;;;6223822;28;20075;-71
2022/11/29 08:57:13;;;;;;;20.05;11.10;;;;;;;;;;6224110;28;20112;-71
2022/11/29 09:00:16;;;;;;;15.02;9.38;;;;;;;;;;6225157;28;20292;-71
2022/11/29 09:06:39;;;;;;;19.98;11.52;;;;;;;;;;6222493;28;20049;-71
2022/11/29 09:09:42;;;;;;;17.30;10.88;;;;;;;;;;6222534;28;20058;-71
2022/11/29 09:12:44;;;;;;;19.75;10.65;;;;;;;;;;6222613;28;20050;-71
2022/11/29 09:15:46;;;;;;;16.15;10.15;;;;;;;;;;6223132;28;20062;-71
2022/11/29 09:18:48;;;;;;;14.45;10.23;;;;;;;;;;6223436;28;20045;-71
2022/11/29 09:21:50;;;;;;;18.08;10.90;;;;;;;;;;6224403;28;20077;-72
2022/11/29 09:24:53;;;;;;;17.58;11.55;;;;;;;;;;6222035;28;20064;-71
2022/11/29 09:27:57;;;;;;;16.70;12.05;;;;;;;;;;6223239;28;20127;-72
2022/11/29 09:31:04;;;;;;;20.63;12.68;;;;;;;;;;6220174;28;20238;-71
2022/11/29 09:34:06;;;;;;;17.95;10.75;;;;;;;;;;6224781;28;20057;-71
2022/11/29 09:37:07;;;;;;;13.07;8.18;;;;;;;;;;6219797;28;20054;-71
2022/11/29 09:40:16;;;;;;;9.32;6.60;;;;;;;;;;6220089;28;20049;-70
2022/11/29 09:43:24;;;;;;;14.52;7.25;;;;;;;;;;6222139;28;20264;-71
2022/11/29 09:46:36;;;;;;;11.65;6.82;;;;;;;;;;6223723;28;20072;-71
2022/11/29 09:49:56;;;;;;;11.63;7.07;;;;;;;;;;6219797;28;20054;-69
2022/11/29 09:53:06;;;;;;;11.77;7.28;;;;;;;;;;6224742;28;20050;-72
2022/11/29 09:56:17;;;;;;;12.15;8.02;;;;;;;;;;6219640;28;20046;-72
2022/11/29 09:59:22;;;;;;;12.02;8.18;;;;;;;;;;6220356;28;20054;-72
2022/11/29 10:02:28;;;;;;;11.43;8.52;;;;;;;;;;6223153;28;20046;-71
2022/11/29 10:05:34;;;;;;;23.33;10.65;;;;;;;;;;6222152;28;20050;-71
2022/11/29 10:08:38;;;;;;;16.08;9.68;;;;;;;;;;6221185;28;20508;-72
2022/11/29 10:11:41;;;;;;;;;;;;;;;;;;6226084;28;20100;-72
2022/11/29 10:14:47;;;;;;;17.50;10.63;;;;;;;;;;6227323;28;19926;-72
2022/11/29 10:17:52;;;;;;;22.80;13.27;;;;;;;;;;6221296;28;20052;-73
2022/11/29 10:20:57;;;;;;;19.45;12.05;;;;;;;;;;6219235;28;20068;-73
2022/11/29 10:24:01;;;;;;;19.92;12.90;;;;;;;;;;6222436;28;20281;-73
2022/11/29 10:27:07;;;;;;;;;;;;;;;;;;6225603;28;20057;-73
2022/11/29 10:30:14;;;;;;;20.90;12.35;;;;;;;;;;6221311;28;19926;-73
2022/11/29 10:33:19;;;;;;;18.98;12.25;;;;;;;;;;6223893;28;20113;-72
2022/11/29 10:36:26;;;;;;;18.50;12.05;;;;;;;;;;6223054;28;20054;-73
2022/11/29 10:39:34;;;;;;;19.92;11.73;;;;;;;;;;6222920;28;20276;-72
2022/11/29 10:42:51;;;;;;;18.98;11.43;;;;;;;;;;6221001;28;20046;-72
2022/11/29 10:45:55;;;;;;;19.40;10.93;;;;;;;;;;6220660;28;20069;-73
2022/11/29 10:48:57;;;;;;;18.38;11.30;;;;;;;;;;6219298;28;20058;-71
2022/11/29 10:51:59;;;;;;;20.13;11.05;;;;;;;;;;6222739;28;20062;-73
2022/11/29 10:55:01;;;;;;;19.25;12.25;;;;;;;;;;6220993;28;20070;-73
2022/11/29 10:58:26;;;;;;;18.02;10.95;;;;;;;;;;6221858;28;20061;-73
2022/11/29 11:01:28;;;;;;;18.83;11.27;;;;;;;;;;6219389;28;20072;-73
2022/11/29 11:04:32;;;;;;;15.43;10.43;;;;;;;;;;6223704;28;20304;-73
2022/11/29 11:07:35;;;;;;;19.25;11.93;;;;;;;;;;6220645;28;20054;-73
2022/11/29 11:10:38;;;;;;;21.83;11.90;;;;;;;;;;6220498;28;20322;-74
2022/11/29 11:13:41;;;;;;;17.58;11.82;;;;;;;;;;6217129;28;20558;-73
2022/11/29 11:16:43;;;;;;;20.08;11.23;;;;;;;;;;6222824;28;20045;-73
2022/11/29 11:19:54;;;;;;;17.13;10.57;;;;;;;;;;6219177;28;20159;-73
2022/11/29 11:22:58;;;;;;;15.80;10.05;;;;;;;;;;6220485;28;20085;-73
2022/11/29 11:26:02;;;;;;;17.00;9.68;;;;;;;;;;6219817;28;20095;-73
2022/11/29 11:29:05;;;;;;;13.00;8.75;;;;;;;;;;6223694;28;20054;-73
2022/11/29 11:32:15;;;;;;;15.05;8.73;;;;;;;;;;6226687;28;20056;-73
2022/11/29 11:35:23;;;;;;;12.43;7.72;;;;;;;;;;6226742;28;20089;-73
2022/11/29 11:38:25;;;;;;;12.13;6.85;;;;;;;;;;6223825;28;20057;-73
2022/11/29 11:44:49;;;;;;;13.50;8.43;;;;;;;;;;6226212;28;20065;-73
2022/11/29 11:47:52;;;;;;;18.45;9.40;;;;;;;;;;6225600;28;20120;-73
2022/11/29 11:50:56;;;;;;;17.23;9.98;;;;;;;;;;6226550;28;20112;-72
2022/11/29 11:53:57;;;;;;;15.73;9.90;;;;;;;;;;6227636;28;20079;-73
2022/11/29 11:56:59;;;;;;;15.63;9.48;;;;;;;;;;6224741;28;20061;-73
2022/11/29 12:00:03;;;;;;;16.77;10.07;;;;;;;;;;6223654;28;20160;-72
2022/11/29 12:03:05;;;;;;;15.07;8.60;;;;;;;;;;6221434;28;20046;-72
2022/11/29 12:06:19;;;;;;;11.15;7.93;;;;;;;;;;6223974;28;20042;-72
2022/11/29 12:09:32;;;;;;;11.02;7.50;;;;;;;;;;6226599;28;20062;-72
2022/11/29 12:12:36;;;;;;;11.18;7.97;;;;;;;;;;6226737;28;20228;-73
2022/11/29 12:15:41;;;;;;;13.20;9.48;;;;;;;;;;6222548;28;20073;-72
2022/11/29 12:18:45;;;;;;;14.63;9.20;;;;;;;;;;6223284;28;20045;-73
2022/11/29 12:21:51;;;;;;;14.10;9.63;;;;;;;;;;6223865;28;20060;-72
2022/11/29 12:24:57;;;;;;;16.58;11.23;;;;;;;;;;6221018;28;20053;-73
2022/11/29 12:27:59;;;;;;;20.90;12.00;;;;;;;;;;6224010;28;20057;-72
2022/11/29 12:31:11;;;;;;;18.17;11.55;;;;;;;;;;6222950;28;20380;-72
2022/11/29 12:34:25;;;;;;;15.35;10.95;;;;;;;;;;6224598;28;20050;-72
2022/11/29 12:37:32;;;;;;;16.40;10.60;;;;;;;;;;6224073;28;20062;-73
2022/11/29 12:40:39;;;;;;;18.30;11.02;;;;;;;;;;6222559;28;20046;-73
2022/11/29 12:43:50;;;;;;;15.50;9.43;;;;;;;;;;6228450;28;20104;-73
2022/11/29 12:46:59;;;;;;;14.35;8.23;;;;;;;;;;6224070;28;20050;-73
2022/11/29 12:50:10;;;;;;;14.63;7.68;;;;;;;;;;6225461;28;20342;-74
2022/11/29 12:53:24;;;;;;;12.32;7.47;;;;;;;;;;6222582;28;20329;-72
2022/11/29 12:56:27;;;;;;;10.68;7.40;;;;;;;;;;6225707;28;20269;-72
2022/11/29 12:59:40;;;;;;;13.77;8.60;;;;;;;;;;6222378;28;20069;-73
2022/11/29 13:02:55;;;;;;;14.75;9.05;;;;;;;;;;6223306;28;22028;-73
2022/11/29 13:06:01;;;;;;;;;;;;;;;;;;6223175;28;20053;-73
2022/11/29 13:09:41;;;;;;;16.45;9.63;;;;;;;;;;6222779;28;19925;-72
2022/11/29 13:12:45;;;;;;;16.50;10.57;;;;;;;;;;6202482;28;20109;-73
2022/11/29 13:15:52;;;;;;;17.83;11.13;;;;;;;;;;6222833;28;21330;-72
2022/11/29 13:19:00;;;;;;;15.00;9.65;;;;;;;;;;6225765;28;20123;-72
2022/11/29 13:22:06;;;;;;;14.02;9.73;;;;;;;;;;6222108;28;20389;-72
2022/11/29 13:25:14;;;;;;;18.67;11.23;;;;;;;;;;6222674;28;20057;-72
2022/11/29 13:28:22;;;;;;;16.83;10.90;;;;;;;;;;6218175;28;20050;-72
2022/11/29 13:31:24;;;;;;;17.52;11.20;;;;;;;;;;6220676;28;20238;-73
2022/11/29 13:34:33;;;;;;;17.58;11.02;;;;;;;;;;6223441;28;20294;-73
2022/11/29 13:37:38;;;;;;;19.15;11.57;;;;;;;;;;6223441;28;20103;-73
2022/11/29 13:40:47;;;;;;;21.80;11.65;;;;;;;;;;6222830;28;20108;-72
2022/11/29 13:43:53;;;;;;;17.88;10.55;;;;;;;;;;6224246;28;20056;-73
2022/11/29 13:47:02;;;;;;;16.75;11.20;;;;;;;;;;6222963;28;20057;-72
2022/11/29 13:50:06;;;;;;;18.15;10.93;;;;;;;;;;6222830;28;20069;-72
2022/11/29 13:53:14;;;;;;;20.67;11.38;;;;;;;;;;6220850;28;20050;-74
2022/11/29 13:56:26;;;;;;;17.10;10.80;;;;;;;;;;6220871;28;20347;-73
2022/11/29 13:59:29;;;;;;;18.65;10.95;;;;;;;;;;6220415;28;20364;-73
2022/11/29 14:02:31;;;;;;;17.10;11.00;;;;;;;;;;6223012;28;20121;-72
2022/11/29 14:05:36;;;;;;;18.08;10.93;;;;;;;;;;6222886;28;20054;-72
2022/11/29 14:08:41;;;;;;;18.02;11.38;;;;;;;;;;6221156;28;20237;-71
2022/11/29 14:11:44;;;;;;;14.95;10.00;;;;;;;;;;6219223;28;20045;-72
2022/11/29 14:14:51;;;;;;;18.77;10.95;;;;;;;;;;6221051;28;20058;-73
2022/11/29 14:17:55;;;;;;;17.27;10.63;;;;;;;;;;6222862;28;21077;-72
2022/11/29 14:20:59;;;;;;;18.33;10.75;;;;;;;;;;6221017;28;20062;-72
2022/11/29 14:24:38;;;;;;;18.77;10.85;;;;;;;;;;6223136;28;20093;-73
2022/11/29 14:27:57;;;;;;;15.73;10.00;;;;;;;;;;6221718;28;20265;-74
2022/11/29 14:31:00;;;;;;;19.33;10.85;;;;;;;;;;6223848;28;20384;-72
2022/11/29 14:34:06;;;;;;;16.35;10.75;;;;;;;;;;6221281;28;20054;-72
2022/11/29 14:37:22;;;;;;;15.25;10.43;;;;;;;;;;6221026;28;20365;-71
2022/11/29 14:40:28;;;;;;;15.32;10.60;;;;;;;;;;6220241;28;20049;-74
2022/11/29 14:43:33;;;;;;;19.98;10.75;;;;;;;;;;6224523;28;20263;-71
2022/11/29 14:46:35;;;;;;;17.67;11.48;;;;;;;;;;6222645;28;20088;-71
2022/11/29 14:49:40;;;;;;;19.80;10.93;;;;;;;;;;6220477;28;20096;-71
2022/11/29 14:52:50;;;;;;;15.95;10.95;;;;;;;;;;6220965;28;20096;-72
2022/11/29 14:55:52;;;;;;;19.90;11.63;;;;;;;;;;6221526;28;20042;-72
2022/11/29 14:59:27;;;;;;;20.98;11.85;;;;;;;;;;6218929;28;20058;-72
2022/11/29 15:02:31;;;;;;;;;;;;;;;;;;6219787;28;20341;-72
2022/11/29 15:05:35;;;;;;;21.52;14.05;;;;;;;;;;6217772;28;19918;-71
2022/11/29 15:08:44;;;;;;;21.08;13.40;;;;;;;;;;6222391;28;20073;-72
2022/11/29 15:11:50;;;;;;;25.88;14.32;;;;;;;;;;6219688;28;20045;-72
2022/11/29 15:14:59;;;;;;;24.63;16.02;;;;;;;;;;6219207;28;20065;-72
2022/11/29 15:18:09;;;;;;;23.02;15.52;;;;;;;;;;6220580;28;20126;-75
2022/11/29 15:21:20;;;;;;;29.45;16.20;;;;;;;;;;6219730;28;20057;-74
2022/11/29 15:24:23;;;;;;;26.10;15.93;;;;;;;;;;6222198;28;20101;-74
2022/11/29 15:27:24;;;;;;;25.38;15.57;;;;;;;;;;6219102;28;20060;-74
2022/11/29 15:30:32;;;;;;;26.27;16.38;;;;;;;;;;6222105;28;20046;-74
2022/11/29 15:33:36;;;;;;;30.42;17.67;;;;;;;;;;6220406;28;20042;-74
2022/11/29 15:36:43;;;;;;;27.65;17.33;;;;;;;;;;6219875;28;20050;-74
2022/11/29 15:39:46;;;;;;;27.13;16.67;;;;;;;;;;6223435;28;20061;-74
2022/11/29 15:42:51;;;;;;;28.67;18.05;;;;;;;;;;6222940;28;20068;-74
2022/11/29 15:45:54;;;;;;;30.23;17.25;;;;;;;;;;6216206;28;20124;-71
2022/11/29 15:49:15;;;;;;;27.95;18.08;;;;;;;;;;6208487;28;20100;-73
2022/11/29 15:52:24;;;;;;;28.30;17.30;;;;;;;;;;6223091;28;20129;-73
2022/11/29 15:55:27;;;;;;;27.65;16.70;;;;;;;;;;6220650;28;20046;-73
2022/11/29 15:58:31;;;;;;;27.42;16.70;;;;;;;;;;6223296;28;20054;-73
2022/11/29 16:01:33;;;;;;;30.98;19.13;;;;;;;;;;6221300;28;20053;-72
2022/11/29 16:04:37;;;;;;;25.88;17.02;;;;;;;;;;6223095;28;20104;-73
2022/11/29 16:07:39;;;;;;;25.70;17.10;;;;;;;;;;6219731;28;20097;-74
2022/11/29 16:10:46;;;;;;;29.08;17.50;;;;;;;;;;6221629;28;20551;-73
2022/11/29 16:14:13;;;;;;;26.00;18.23;;;;;;;;;;6219986;28;20062;-73
2022/11/29 16:17:15;;;;;;;28.33;17.05;;;;;;;;;;6220276;28;20053;-74
2022/11/29 16:20:24;;;;;;;27.38;16.88;;;;;;;;;;6223094;28;20073;-73
2022/11/29 16:23:32;;;;;;;28.63;16.50;;;;;;;;;;6224228;28;20041;-73
2022/11/29 16:26:38;;;;;;;28.42;17.55;;;;;;;;;;6224230;28;20214;-73
2022/11/29 16:29:43;;;;;;;26.33;17.02;;;;;;;;;;6222394;28;20237;-73
2022/11/29 16:32:49;;;;;;;27.83;17.15;;;;;;;;;;6228226;28;20286;-73
2022/11/29 16:35:51;;;;;;;25.83;16.52;;;;;;;;;;6223806;28;20065;-74
2022/11/29 16:38:54;;;;;;;25.45;16.42;;;;;;;;;;6223617;28;20065;-74
2022/11/29 16:42:08;;;;;;;24.05;15.18;;;;;;;;;;6224180;28;20054;-71
2022/11/29 16:45:32;;;;;;;25.85;16.77;;;;;;;;;;6221470;28;20313;-71
2022/11/29 16:48:37;;;;;;;29.47;17.13;;;;;;;;;;6222400;28;20291;-74
2022/11/29 16:51:47;;;;;;;27.80;17.60;;;;;;;;;;6220917;28;20054;-73
2022/11/29 16:54:48;;;;;;;27.30;17.33;;;;;;;;;;6217526;28;20075;-73
2022/11/29 16:57:52;;;;;;;26.33;16.27;;;;;;;;;;6216220;28;20049;-73
2022/11/29 17:00:54;;;;;;;25.05;16.50;;;;;;;;;;6218352;28;20073;-73
2022/11/29 17:03:56;;;;;;;25.13;16.30;;;;;;;;;;6220847;28;20082;-72
2022/11/29 17:06:58;;;;;;;29.77;16.98;;;;;;;;;;6220721;28;20065;-73
2022/11/29 17:10:00;;;;;;;26.08;16.42;;;;;;;;;;6222205;28;20242;-73
2022/11/29 17:13:03;;;;;;;32.00;16.38;;;;;;;;;;6223943;28;20350;-73
2022/11/29 17:16:10;;;;;;;27.00;17.58;;;;;;;;;;6222072;28;20116;-73
2022/11/29 17:19:13;;;;;;;26.90;15.98;;;;;;;;;;6225256;28;20050;-73
2022/11/29 17:22:14;;;;;;;27.10;16.65;;;;;;;;;;6222041;28;20274;-73
2022/11/29 17:25:16;;;;;;;29.98;16.83;;;;;;;;;;6224518;28;20055;-70
2022/11/29 17:28:19;;;;;;;24.95;16.52;;;;;;;;;;6223010;28;20050;-70
2022/11/29 17:31:22;;;;;;;27.15;16.40;;;;;;;;;;6220398;28;20054;-70
2022/11/29 17:34:24;;;;;;;26.77;16.48;;;;;;;;;;6223339;28;20144;-71
2022/11/29 17:37:26;;;;;;;27.27;17.33;;;;;;;;;;6221966;28;20057;-70
2022/11/29 17:40:27;;;;;;;29.63;17.95;;;;;;;;;;6222109;28;20057;-71
2022/11/29 17:43:33;;;;;;;29.45;17.35;;;;;;;;;;6221552;28;20353;-71
2022/11/29 17:46:36;;;;;;;27.63;18.23;;;;;;;;;;6224720;28;20061;-70
2022/11/29 17:49:38;;;;;;;31.60;17.48;;;;;;;;;;6221393;28;20050;-70
2022/11/29 17:52:40;;;;;;;26.85;16.80;;;;;;;;;;6219915;28;20090;-70
2022/11/29 17:55:42;;;;;;;27.27;17.10;;;;;;;;;;6223331;28;20074;-72
2022/11/29 17:58:45;;;;;;;29.17;18.15;;;;;;;;;;6223650;28;20069;-72
2022/11/29 18:01:47;;;;;;;29.08;17.85;;;;;;;;;;6223693;28;20092;-74
2022/11/29 18:04:48;;;;;;;26.27;16.65;;;;;;;;;;6222117;28;20109;-71
2022/11/29 18:07:59;;;;;;;30.23;17.10;;;;;;;;;;6222173;28;20365;-71
2022/11/29 18:11:05;;;;;;;26.15;16.85;;;;;;;;;;6221980;28;20054;-71
2022/11/29 18:14:10;;;;;;;27.48;17.20;;;;;;;;;;6220873;28;20073;-72
2022/11/29 18:17:11;;;;;;;28.15;17.75;;;;;;;;;;6220570;28;20107;-72
2022/11/29 18:20:13;;;;;;;35.88;19.17;;;;;;;;;;6221984;28;20100;-72
2022/11/29 18:23:15;;;;;;;29.67;18.02;;;;;;;;;;6220564;28;20326;-71